Time;durP1;ratioP1;P1;durP2;ratioP2;P2;SDS_P1;SDS_P2;PMS_P1;PMS_P2;Temp;Humidity;BMP_temperature;BMP_pressure;BME280_temperature;BME280_humidity;BME280_pressure;Samples;Min_cycle;Max_cycle;Signal;HPM_P1;HPM_P2
2022/04/18 00:01:52;;;;;;;18.10;6.30;;;6.40;55.90;;;;;;5052345;28;20033;-79
2022/04/18 00:04:18;;;;;;;17.88;6.13;;;6.50;55.70;;;;;;5050740;28;20079;-78
2022/04/18 00:06:44;;;;;;;15.18;5.38;;;6.40;56.20;;;;;;5051795;28;20033;-79
2022/04/18 00:09:11;;;;;;;10.48;4.93;;;6.40;54.80;;;;;;5052095;28;20352;-80
2022/04/18 00:11:37;;;;;;;5.50;2.65;;;6.40;54.30;;;;;;5052081;28;20032;-78
2022/04/18 00:14:03;;;;;;;7.60;3.97;;;6.50;53.60;;;;;;5051732;28;20025;-79
2022/04/18 00:16:29;;;;;;;6.70;2.90;;;6.50;54.30;;;;;;5051702;28;20070;-79
2022/04/18 00:18:55;;;;;;;7.57;3.15;;;6.60;53.70;;;;;;5052146;28;20029;-80
2022/04/18 00:21:20;;;;;;;14.18;5.05;;;6.60;53.20;;;;;;5050553;28;20032;-79
2022/04/18 00:23:46;;;;;;;9.38;3.88;;;6.60;53.80;;;;;;5052213;28;20056;-79
2022/04/18 00:26:12;;;;;;;18.08;6.65;;;6.60;53.70;;;;;;5052093;28;20028;-78
2022/04/18 00:28:38;;;;;;;14.40;6.88;;;6.50;54.40;;;;;;5051698;28;20021;-78
2022/04/18 00:31:04;;;;;;;16.65;7.40;;;6.40;55.10;;;;;;5050675;28;20388;-77
2022/04/18 00:33:31;;;;;;;15.35;5.88;;;6.00;56.30;;;;;;5051678;28;20013;-78
2022/04/18 00:35:57;;;;;;;10.45;4.90;;;6.00;57.00;;;;;;5051409;28;20043;-81
2022/04/18 00:38:23;;;;;;;13.23;5.78;;;6.00;56.20;;;;;;5053753;28;20017;-80
2022/04/18 00:40:49;;;;;;;12.48;4.97;;;5.90;56.80;;;;;;5055442;28;20053;-78
2022/04/18 00:43:15;;;;;;;12.38;4.97;;;6.00;56.70;;;;;;5054269;28;20017;-82
2022/04/18 00:45:41;;;;;;;12.40;4.90;;;6.00;57.00;;;;;;5054199;28;20035;-78
2022/04/18 00:48:07;;;;;;;10.57;4.68;;;6.00;57.50;;;;;;5055195;28;20459;-80
2022/04/18 00:50:35;;;;;;;10.82;5.45;;;5.90;57.60;;;;;;5055641;28;20070;-78
2022/04/18 00:53:03;;;;;;;13.35;5.25;;;5.80;58.00;;;;;;5055068;28;20021;-79
2022/04/18 00:55:32;;;;;;;16.40;6.95;;;5.80;57.80;;;;;;5055300;28;20021;-79
2022/04/18 00:58:00;;;;;;;18.90;8.70;;;5.70;57.60;;;;;;5055402;28;20029;-80
2022/04/18 01:00:26;;;;;;;16.45;6.53;;;5.70;57.80;;;;;;5054056;28;20041;-80
2022/04/18 01:02:51;;;;;;;13.45;6.40;;;5.70;57.90;;;;;;5054877;28;20498;-80
2022/04/18 01:05:17;;;;;;;10.13;4.75;;;5.60;58.70;;;;;;5055082;28;20037;-80
2022/04/18 01:07:43;;;;;;;9.07;3.92;;;5.40;59.80;;;;;;5054039;28;20021;-81
2022/04/18 01:10:09;;;;;;;8.05;3.35;;;5.30;60.70;;;;;;5055039;28;20017;-81
2022/04/18 01:12:35;;;;;;;12.30;3.83;;;5.20;61.50;;;;;;5054875;28;20017;-79
2022/04/18 01:15:01;;;;;;;8.32;3.45;;;5.10;62.00;;;;;;5053770;28;20021;-81
2022/04/18 01:17:27;;;;;;;11.77;3.97;;;5.10;62.20;;;;;;5054645;28;20029;-81
2022/04/18 01:19:53;;;;;;;9.02;3.55;;;4.90;62.70;;;;;;5054995;28;20506;-82
2022/04/18 01:22:19;;;;;;;12.27;4.38;;;4.90;63.20;;;;;;5054676;28;20021;-80
2022/04/18 01:30:15;;;;;;;7.93;3.35;;;4.80;64.10;;;;;;5053878;28;20082;-81
2022/04/18 01:32:42;;;;;;;7.95;3.60;;;4.70;64.50;;;;;;5055002;28;20104;-81
2022/04/18 01:35:09;;;;;;;13.85;3.60;;;4.60;65.10;;;;;;5054683;28;20025;-80
2022/04/18 01:37:36;;;;;;;5.68;3.60;;;4.60;65.30;;;;;;5054559;28;20025;-80
2022/04/18 01:40:03;;;;;;;11.65;3.58;;;4.60;65.70;;;;;;5054363;28;20028;-79
2022/04/18 01:42:29;;;;;;;9.80;3.22;;;4.50;65.60;;;;;;5053264;28;20021;-81
2022/04/18 01:44:55;;;;;;;8.90;3.45;;;4.40;65.50;;;;;;5054016;28;20040;-81
2022/04/18 01:47:21;;;;;;;8.23;3.40;;;4.40;66.20;;;;;;5053956;28;20154;-79
2022/04/18 01:49:46;;;;;;;8.05;3.70;;;4.40;66.10;;;;;;5054218;28;20021;-81
2022/04/18 01:52:12;;;;;;;10.77;3.67;;;4.30;66.30;;;;;;5052974;28;20032;-80
2022/04/18 01:54:38;;;;;;;6.70;3.92;;;4.30;67.00;;;;;;5053944;28;20480;-80
2022/04/18 01:57:04;;;;;;;6.18;3.15;;;4.10;66.70;;;;;;5054110;28;20031;-83
2022/04/18 01:59:30;;;;;;;9.07;3.97;;;4.10;67.80;;;;;;5052464;28;20049;-81
2022/04/18 02:01:55;;;;;;;6.80;3.50;;;4.20;67.70;;;;;;5054208;28;20032;-80
2022/04/18 02:04:21;;;;;;;8.50;3.92;;;4.20;67.20;;;;;;5053834;28;20025;-80
2022/04/18 02:06:47;;;;;;;8.50;3.28;;;4.30;67.30;;;;;;5053693;28;20454;-81
2022/04/18 02:09:12;;;;;;;6.65;3.50;;;4.30;67.30;;;;;;5052838;28;20093;-79
2022/04/18 02:11:39;;;;;;;7.45;4.13;;;4.30;67.30;;;;;;5052800;28;20029;-79
2022/04/18 02:14:04;;;;;;;7.65;4.47;;;4.10;67.60;;;;;;5053930;28;20021;-81
2022/04/18 02:16:30;;;;;;;9.00;4.47;;;4.10;68.00;;;;;;5053908;28;20368;-81
2022/04/18 02:18:56;;;;;;;6.55;3.97;;;4.10;68.10;;;;;;5054058;28;20017;-80
2022/04/18 02:21:23;;;;;;;9.02;4.38;;;4.00;68.40;;;;;;5052112;28;20017;-80
2022/04/18 02:23:49;;;;;;;7.20;4.65;;;3.90;68.50;;;;;;5053782;28;20087;-82
2022/04/18 02:26:15;;;;;;;10.20;4.03;;;3.80;68.90;;;;;;5053882;28;20079;-80
2022/04/18 02:28:41;;;;;;;8.70;3.70;;;3.80;69.60;;;;;;5053840;28;20025;-79
2022/04/18 02:31:08;;;;;;;8.05;5.28;;;3.70;70.30;;;;;;5052428;28;20414;-81
2022/04/18 02:33:34;;;;;;;6.60;3.92;;;3.60;70.70;;;;;;5053584;28;20463;-81
2022/04/18 02:36:02;;;;;;;10.35;4.13;;;3.80;71.40;;;;;;5053286;28;20032;-80
2022/04/18 02:38:29;;;;;;;6.68;3.22;;;3.80;72.20;;;;;;5052312;28;20025;-80
2022/04/18 02:40:54;;;;;;;8.63;3.92;;;3.80;71.70;;;;;;5053051;28;20025;-79
2022/04/18 02:43:20;;;;;;;16.45;6.07;;;3.70;72.90;;;;;;5053593;28;20021;-80
2022/04/18 02:45:46;;;;;;;10.93;6.18;;;3.70;73.60;;;;;;5053132;28;20033;-82
2022/04/18 02:48:11;;;;;;;10.75;4.97;;;3.70;75.40;;;;;;5053446;28;20448;-79
2022/04/18 02:50:37;;;;;;;16.17;4.80;;;3.80;77.50;;;;;;5052930;28;20037;-79
2022/04/18 02:53:05;;;;;;;9.77;4.25;;;3.60;77.30;;;;;;5052061;28;20068;-79
2022/04/18 02:55:31;;;;;;;6.43;3.83;;;3.50;79.90;;;;;;5053046;28;20017;-79
2022/04/18 02:57:57;;;;;;;12.18;5.20;;;3.50;81.40;;;;;;5053078;28;20036;-80
2022/04/18 03:00:23;;;;;;;12.65;5.10;;;3.60;83.40;;;;;;5049585;28;20116;-78
2022/04/18 03:02:49;;;;;;;8.35;4.18;;;3.50;84.60;;;;;;5052562;28;20032;-78
2022/04/18 03:05:15;;;;;;;10.25;4.60;;;3.50;87.60;;;;;;5052698;28;20498;-81
2022/04/18 03:07:41;;;;;;;9.15;4.30;;;3.50;88.80;;;;;;5051715;28;20079;-80
2022/04/18 03:10:08;;;;;;;8.32;4.68;;;3.50;90.20;;;;;;5051505;28;20074;-79
2022/04/18 03:12:34;;;;;;;9.52;4.20;;;3.50;91.60;;;;;;5052652;28;20020;-80
2022/04/18 03:15:00;;;;;;;8.52;4.32;;;3.50;92.60;;;;;;5051571;28;20549;-81
2022/04/18 03:17:26;;;;;;;10.40;4.80;;;3.30;94.00;;;;;;5052951;28;20021;-78
2022/04/18 03:19:52;;;;;;;10.43;3.97;;;3.30;96.10;;;;;;5051511;28;20052;-78
2022/04/18 03:22:19;;;;;;;8.32;4.22;;;3.30;98.50;;;;;;5051265;28;20056;-79
2022/04/18 03:24:46;;;;;;;8.13;4.38;;;3.30;98.40;;;;;;5052542;28;20032;-79
2022/04/18 03:27:12;;;;;;;9.38;4.43;;;3.20;99.40;;;;;;5051356;28;20017;-80
2022/04/18 03:29:38;;;;;;;11.52;5.35;;;3.10;99.90;;;;;;5052413;28;20021;-80
2022/04/18 03:32:05;;;;;;;9.45;4.78;;;3.10;99.90;;;;;;5053779;28;20107;-78
2022/04/18 03:34:31;;;;;;;11.98;4.95;;;3.00;99.90;;;;;;5053158;28;20422;-80
2022/04/18 03:39:56;;;;;;;10.63;4.65;;;2.90;99.90;;;;;;5053915;28;20419;-80
2022/04/18 03:42:29;;;;;;;10.55;4.90;;;2.90;99.90;;;;;;5054027;28;20025;-81
2022/04/18 03:44:58;;;;;;;8.70;4.88;;;2.90;99.90;;;;;;5053566;28;20040;-79
2022/04/18 03:47:25;;;;;;;11.93;5.60;;;2.90;99.90;;;;;;5052343;28;20605;-79
2022/04/18 03:49:51;;;;;;;26.20;7.38;;;2.80;99.90;;;;;;5053793;28;20025;-80
2022/04/18 03:52:17;;;;;;;15.05;5.80;;;2.80;99.90;;;;;;5052259;28;20037;-81
2022/04/18 03:54:43;;;;;;;9.50;4.40;;;2.80;99.90;;;;;;5053914;28;20029;-79
2022/04/18 03:57:09;;;;;;;9.65;4.18;;;2.60;99.90;;;;;;5053500;28;20025;-81
2022/04/18 03:59:36;;;;;;;9.93;5.65;;;2.80;99.90;;;;;;5053539;28;20094;-79
2022/04/18 04:02:02;;;;;;;13.85;5.47;;;2.70;99.90;;;;;;5051782;28;20029;-79
2022/04/18 04:04:29;;;;;;;11.48;4.93;;;2.70;99.90;;;;;;5053408;28;20522;-79
2022/04/18 04:06:55;;;;;;;13.27;5.45;;;2.70;99.90;;;;;;5051871;28;20064;-79
2022/04/18 04:09:20;;;;;;;10.75;5.03;;;2.70;99.90;;;;;;5052184;28;20057;-78
2022/04/18 04:11:46;;;;;;;9.00;4.95;;;2.60;99.90;;;;;;5053593;28;20029;-79
2022/04/18 04:14:12;;;;;;;12.23;4.82;;;2.50;99.90;;;;;;5057248;28;20029;-78
2022/04/18 04:16:40;;;;;;;12.70;4.47;;;2.50;99.90;;;;;;5057306;28;20083;-79
2022/04/18 04:19:07;;;;;;;14.93;7.10;;;2.50;99.90;;;;;;5057384;28;20452;-79
2022/04/18 04:21:36;;;;;;;20.10;9.25;;;2.40;99.90;;;;;;5057110;28;20490;-78
2022/04/18 04:24:02;;;;;;;23.02;10.35;;;2.30;99.90;;;;;;5057392;28;20028;-78
2022/04/18 04:26:28;;;;;;;25.05;10.68;;;2.40;99.90;;;;;;5056348;28;20032;-78
2022/04/18 04:28:54;;;;;;;19.08;10.65;;;2.40;99.90;;;;;;5057256;28;20495;-77
2022/04/18 04:31:20;;;;;;;29.90;11.10;;;2.50;99.90;;;;;;5057617;28;20021;-79
2022/04/18 04:33:45;;;;;;;30.67;11.45;;;2.60;99.90;;;;;;5089087;28;20095;-79
2022/04/18 04:36:12;;;;;;;21.77;11.18;;;2.70;99.90;;;;;;5056826;28;20106;-78
2022/04/18 04:38:38;;;;;;;30.33;13.73;;;2.70;99.90;;;;;;5056844;28;20025;-77
2022/04/18 04:41:04;;;;;;;30.27;11.63;;;2.80;99.90;;;;;;5056930;28;20028;-78
2022/04/18 04:43:30;;;;;;;26.83;14.43;;;2.90;99.90;;;;;;5057251;28;20036;-78
2022/04/18 04:46:02;;;;;;;24.30;11.77;;;3.00;99.90;;;;;;5057105;28;20033;-79
2022/04/18 04:48:28;;;;;;;26.98;13.23;;;3.10;99.90;;;;;;5057259;28;20128;-78
2022/04/18 04:50:54;;;;;;;22.73;11.27;;;3.20;99.90;;;;;;5056930;28;20468;-79
2022/04/18 04:53:20;;;;;;;26.05;9.60;;;3.10;99.90;;;;;;5056764;28;20040;-79
2022/04/18 04:55:46;;;;;;;28.50;8.45;;;3.20;99.90;;;;;;5056665;28;20107;-79
2022/04/18 04:58:12;;;;;;;20.60;9.05;;;3.50;99.90;;;;;;5055823;28;20033;-78
2022/04/18 05:00:38;;;;;;;14.82;6.32;;;3.60;99.90;;;;;;5056231;28;20094;-78
2022/04/18 05:03:05;;;;;;;22.10;5.07;;;3.50;99.90;;;;;;5056677;28;20029;-78
2022/04/18 05:05:32;;;;;;;23.50;5.75;;;3.60;99.90;;;;;;5056668;28;20029;-77
2022/04/18 05:07:58;;;;;;;20.20;6.28;;;3.60;99.90;;;;;;5055209;28;20029;-80
2022/04/18 05:10:24;;;;;;;15.00;6.30;;;3.70;99.90;;;;;;5055321;28;20483;-79
2022/04/18 05:12:50;;;;;;;15.90;6.22;;;3.70;99.90;;;;;;5055459;28;20082;-80
2022/04/18 05:15:15;;;;;;;11.27;6.00;;;3.60;99.90;;;;;;5056081;28;20421;-78
2022/04/18 05:17:41;;;;;;;17.80;7.28;;;3.70;99.90;;;;;;5056146;28;20029;-79
2022/04/18 05:20:08;;;;;;;19.17;8.50;;;3.80;99.90;;;;;;5055946;28;20025;-77
2022/04/18 05:22:33;;;;;;;43.25;21.15;;;3.80;99.90;;;;;;5054212;28;20025;-79
2022/04/18 05:24:59;;;;;;;18.10;8.85;;;3.80;99.90;;;;;;5054614;28;20033;-78
2022/04/18 05:27:25;;;;;;;24.77;9.55;;;3.90;99.90;;;;;;5056618;28;20072;-77
2022/04/18 05:29:51;;;;;;;13.98;7.53;;;4.00;99.90;;;;;;5056103;28;20479;-78
2022/04/18 05:32:17;;;;;;;18.65;7.38;;;4.10;99.90;;;;;;5056111;28;20027;-79
2022/04/18 05:34:43;;;;;;;19.83;6.55;;;4.20;99.90;;;;;;5054957;28;20025;-79
2022/04/18 05:37:09;;;;;;;20.70;6.13;;;4.30;99.90;;;;;;5055931;28;20031;-78
2022/04/18 05:39:35;;;;;;;17.10;8.13;;;4.40;99.90;;;;;;5056030;28;20450;-79
2022/04/18 05:42:01;;;;;;;16.17;8.00;;;4.50;99.90;;;;;;5054625;28;20024;-79
2022/04/18 05:44:27;;;;;;;19.05;6.72;;;4.50;99.90;;;;;;5056068;28;20065;-79
2022/04/18 05:46:53;;;;;;;18.85;7.88;;;4.70;99.90;;;;;;5054593;28;20029;-77
2022/04/18 05:49:19;;;;;;;15.80;6.18;;;4.90;99.90;;;;;;5054492;28;20082;-78
2022/04/18 05:51:44;;;;;;;10.40;6.05;;;5.00;99.90;;;;;;5055887;28;20118;-79
2022/04/18 05:54:11;;;;;;;29.55;9.18;;;5.20;99.90;;;;;;5054431;28;20115;-79
2022/04/18 05:56:37;;;;;;;18.75;7.00;;;5.30;99.90;;;;;;5055931;28;20040;-79
2022/04/18 05:59:03;;;;;;;18.10;7.72;;;5.60;99.90;;;;;;5055146;28;20041;-79
2022/04/18 06:01:31;;;;;;;16.67;6.88;;;5.70;99.90;;;;;;5054455;28;20452;-79
2022/04/18 06:03:57;;;;;;;10.32;5.38;;;5.70;99.90;;;;;;5054097;28;20426;-78
2022/04/18 06:06:23;;;;;;;15.70;5.82;;;5.60;99.20;;;;;;5055157;28;20040;-77
2022/04/18 06:08:49;;;;;;;13.68;5.03;;;5.70;99.90;;;;;;5055617;28;20025;-76
2022/04/18 06:11:14;;;;;;;13.40;5.20;;;5.90;99.90;;;;;;5054229;28;20112;-77
2022/04/18 06:13:40;;;;;;;10.52;5.20;;;6.00;99.90;;;;;;5055132;28;20029;-78
2022/04/18 06:16:06;;;;;;;10.43;5.20;;;6.30;99.90;;;;;;5055451;28;20028;-79
2022/04/18 06:18:32;;;;;;;10.57;5.00;;;6.30;97.20;;;;;;5053888;28;20025;-79
2022/04/18 06:20:59;;;;;;;11.02;5.38;;;6.50;96.70;;;;;;5053898;28;20029;-79
2022/04/18 06:23:25;;;;;;;10.48;5.13;;;6.50;97.10;;;;;;5054843;28;20427;-80
2022/04/18 06:25:51;;;;;;;12.13;5.80;;;6.70;96.70;;;;;;5054689;28;20479;-79
2022/04/18 06:28:19;;;;;;;12.07;5.97;;;6.70;95.50;;;;;;5055409;28;20025;-78
2022/04/18 06:30:44;;;;;;;10.57;5.55;;;6.80;97.30;;;;;;5054699;28;20427;-79
2022/04/18 06:33:11;;;;;;;8.30;4.80;;;7.00;94.90;;;;;;5053897;28;20036;-77
2022/04/18 06:35:37;;;;;;;10.50;5.05;;;7.20;93.30;;;;;;5054018;28;20028;-77
2022/04/18 06:38:03;;;;;;;13.35;5.75;;;7.40;93.70;;;;;;5054367;28;20033;-77
2022/04/18 06:40:28;;;;;;;13.48;5.22;;;7.60;93.40;;;;;;5053520;28;20025;-78
2022/04/18 06:42:54;;;;;;;9.07;5.10;;;7.70;92.10;;;;;;5054790;28;20095;-78
2022/04/18 06:45:20;;;;;;;11.57;4.60;;;7.60;91.70;;;;;;5054619;28;20041;-80
2022/04/18 06:47:48;;;;;;;12.32;4.32;;;7.90;91.60;;;;;;5054780;28;20029;-77
2022/04/18 06:50:14;;;;;;;9.10;4.70;;;8.10;90.30;;;;;;5054766;28;20097;-80
2022/04/18 06:52:41;;;;;;;10.10;5.38;;;8.10;87.60;;;;;;5053173;28;20527;-79
2022/04/18 06:55:08;;;;;;;9.38;4.65;;;8.30;86.10;;;;;;5054124;28;20036;-80
2022/04/18 06:57:35;;;;;;;6.85;4.13;;;8.50;85.30;;;;;;5052495;28;20460;-79
2022/04/18 07:00:06;;;;;;;7.05;4.05;;;8.70;82.10;;;;;;5054002;28;20076;-80
2022/04/18 07:02:32;;;;;;;13.37;5.70;;;8.70;82.40;;;;;;5052084;28;20074;-79
2022/04/18 07:05:01;;;;;;;20.48;7.65;;;9.00;84.60;;;;;;5052962;28;20037;-80
2022/04/18 07:07:30;;;;;;;15.40;5.22;;;8.90;77.50;;;;;;5054244;28;20029;-79
2022/04/18 07:09:55;;;;;;;9.85;4.82;;;8.80;78.10;;;;;;5053889;28;20063;-80
2022/04/18 07:12:23;;;;;;;7.15;4.22;;;9.10;75.20;;;;;;5054210;28;20033;-81
2022/04/18 07:14:49;;;;;;;9.25;4.47;;;9.20;74.40;;;;;;5052789;28;20476;-78
2022/04/18 07:17:15;;;;;;;21.77;7.85;;;9.10;74.70;;;;;;5053846;28;20025;-79
2022/04/18 07:19:41;;;;;;;14.40;6.45;;;9.20;73.10;;;;;;5054327;28;20464;-79
2022/04/18 07:22:07;;;;;;;10.23;5.45;;;9.40;73.10;;;;;;5052676;28;20037;-79
2022/04/18 07:24:33;;;;;;;9.65;5.07;;;9.70;75.30;;;;;;5053782;28;20036;-81
2022/04/18 07:27:01;;;;;;;12.35;5.63;;;9.80;69.50;;;;;;5053785;28;20025;-79
2022/04/18 07:29:30;;;;;;;13.80;5.55;;;9.90;70.70;;;;;;5053711;28;20078;-80
2022/04/18 07:31:59;;;;;;;12.50;6.03;;;9.90;71.40;;;;;;5053928;28;20025;-78
2022/04/18 07:34:24;;;;;;;10.82;5.60;;;10.10;68.90;;;;;;5052493;28;20032;-79
2022/04/18 07:36:50;;;;;;;10.07;3.92;;;10.20;69.60;;;;;;5054014;28;20387;-77
2022/04/18 07:39:16;;;;;;;10.18;4.80;;;10.10;67.90;;;;;;5053888;28;20051;-81
2022/04/18 07:41:42;;;;;;;12.35;6.65;;;10.10;67.60;;;;;;5053735;28;20357;-78
2022/04/18 07:44:07;;;;;;;9.88;4.13;;;10.40;65.20;;;;;;5053600;28;20021;-78
2022/04/18 07:46:36;;;;;;;14.30;5.68;;;10.40;66.90;;;;;;5053736;28;20028;-79
2022/04/18 07:49:02;;;;;;;16.17;7.00;;;10.70;67.40;;;;;;5053564;28;20375;-79
2022/04/18 07:51:42;;;;;;;11.27;6.63;;;10.80;65.70;;;;;;5053349;28;20029;-77
2022/04/18 07:54:10;;;;;;;13.35;7.20;;;11.30;64.30;;;;;;5054044;28;20036;-79
2022/04/18 07:56:37;;;;;;;12.07;5.70;;;11.30;62.00;;;;;;5053509;28;20025;-79
2022/04/18 07:59:03;;;;;;;11.63;6.05;;;11.50;62.90;;;;;;5053486;28;20045;-80
2022/04/18 08:01:29;;;;;;;14.18;5.47;;;11.70;61.20;;;;;;5052463;28;20029;-78
2022/04/18 08:03:57;;;;;;;9.52;4.97;;;12.00;60.50;;;;;;5053437;28;20090;-79
2022/04/18 08:06:22;;;;;;;8.68;5.22;;;12.00;60.00;;;;;;5052186;28;20037;-80
2022/04/18 08:08:48;;;;;;;10.73;5.10;;;12.20;59.30;;;;;;5052346;28;20070;-80
2022/04/18 08:11:17;;;;;;;17.85;6.82;;;12.40;56.90;;;;;;5053433;28;20027;-78
2022/04/18 08:13:46;;;;;;;11.38;8.82;;;12.70;57.40;;;;;;5052195;28;20025;-77
2022/04/18 08:16:13;;;;;;;8.63;4.47;;;12.80;55.80;;;;;;5053227;28;20035;-76
2022/04/18 08:18:41;;;;;;;11.55;6.15;;;12.70;54.40;;;;;;5052254;28;20045;-80
2022/04/18 08:21:08;;;;;;;7.47;4.97;;;13.00;54.70;;;;;;5052069;28;20025;-80
2022/04/18 08:23:34;;;;;;;9.52;5.55;;;13.10;53.70;;;;;;5053306;28;20017;-79
2022/04/18 08:26:01;;;;;;;9.75;4.63;;;13.50;53.30;;;;;;5053082;28;20043;-79
2022/04/18 08:28:27;;;;;;;7.40;5.18;;;13.60;54.80;;;;;;5053217;28;20028;-79
2022/04/18 08:30:54;;;;;;;14.35;5.75;;;13.60;52.40;;;;;;5053279;28;20021;-78
2022/04/18 08:33:20;;;;;;;15.35;6.75;;;14.00;51.90;;;;;;5052212;28;20120;-78
2022/04/18 08:35:46;;;;;;;11.13;5.68;;;13.90;49.30;;;;;;5053123;28;20493;-78
2022/04/18 08:38:12;;;;;;;7.15;4.95;;;14.00;50.20;;;;;;5051918;28;20112;-79
2022/04/18 08:40:40;;;;;;;8.98;5.40;;;14.30;48.70;;;;;;5051951;28;20452;-77
2022/04/18 08:43:06;;;;;;;8.95;6.13;;;14.10;49.10;;;;;;5053284;28;20526;-78
2022/04/18 08:45:32;;;;;;;12.57;7.22;;;14.10;49.90;;;;;;5052717;28;20069;-77
2022/04/18 08:53:29;;;;;;;11.68;6.72;;;14.40;48.60;;;;;;5052980;28;20048;-80
2022/04/18 08:55:56;;;;;;;8.20;4.78;;;14.90;47.20;;;;;;5053051;28;20032;-80
2022/04/18 08:58:23;;;;;;;10.60;6.55;;;15.30;47.50;;;;;;5053353;28;20028;-76
2022/04/18 09:00:49;;;;;;;12.20;5.47;;;15.00;46.80;;;;;;5055316;28;20048;-77
2022/04/18 09:03:16;;;;;;;10.48;6.20;;;15.20;45.90;;;;;;5055400;28;20035;-76
2022/04/18 09:05:42;;;;;;;10.27;4.90;;;15.40;43.50;;;;;;5054907;28;20033;-78
2022/04/18 09:08:09;;;;;;;10.00;7.10;;;15.60;43.20;;;;;;5056904;28;20104;-75
2022/04/18 09:10:36;;;;;;;11.73;6.68;;;15.60;42.90;;;;;;5056405;28;20056;-78
2022/04/18 09:13:10;;;;;;;11.35;6.47;;;15.70;43.90;;;;;;5054893;28;20055;-77
2022/04/18 09:15:46;;;;;;;7.68;5.38;;;15.80;42.70;;;;;;5055533;28;20484;-79
2022/04/18 09:18:18;;;;;;;10.20;4.97;;;16.20;40.40;;;;;;5055922;28;20521;-77
2022/04/18 09:20:45;;;;;;;;;;;16.50;40.10;;;;;;5056111;28;20021;-77
2022/04/18 09:23:23;;;;;;;9.77;5.45;;;17.00;39.60;;;;;;5054889;28;20405;-77
2022/04/18 09:25:56;;;;;;;8.23;6.10;;;16.40;40.30;;;;;;5056349;28;20033;-77
2022/04/18 09:28:33;;;;;;;8.60;5.85;;;16.90;44.10;;;;;;5056173;28;20039;-77
2022/04/18 09:31:07;;;;;;;9.45;6.18;;;16.70;40.80;;;;;;5056330;28;20136;-77
2022/04/18 09:33:42;;;;;;;9.02;4.40;;;16.60;38.90;;;;;;5056525;28;20371;-78
2022/04/18 09:36:10;;;;;;;8.82;5.72;;;17.10;38.90;;;;;;5056004;28;20032;-76
2022/04/18 09:38:44;;;;;;;38.85;24.85;;;17.30;36.50;;;;;;5056450;28;20112;-76
2022/04/18 09:41:15;;;;;;;5.90;4.32;;;17.80;37.00;;;;;;5056194;28;20056;-79
2022/04/18 09:43:48;;;;;;;5.40;3.95;;;17.60;35.70;;;;;;5054848;28;20090;-77
2022/04/18 09:46:15;;;;;;;6.18;3.55;;;18.00;35.30;;;;;;5055710;28;20462;-79
2022/04/18 09:48:45;;;;;;;13.82;6.85;;;16.70;32.60;;;;;;5055611;28;20063;-80
2022/04/18 09:51:26;;;;;;;5.90;3.92;;;16.10;35.40;;;;;;5055856;28;20023;-81
2022/04/18 09:53:57;;;;;;;8.20;3.22;;;15.20;34.20;;;;;;5055959;28;20056;-81
2022/04/18 09:56:24;;;;;;;14.73;11.25;;;14.20;34.00;;;;;;5055517;28;20112;-78
2022/04/18 09:58:50;;;;;;;15.38;8.30;;;13.80;35.00;;;;;;5054223;28;20112;-79
2022/04/18 10:01:16;;;;;;;13.35;6.18;;;13.60;36.70;;;;;;5055584;28;20061;-79
2022/04/18 10:03:43;;;;;;;8.20;3.75;;;13.20;36.50;;;;;;5054514;28;20048;-80
2022/04/18 10:06:10;;;;;;;29.95;10.02;;;13.20;35.80;;;;;;5054251;28;20361;-81
2022/04/18 10:08:37;;;;;;;16.63;7.28;;;13.20;36.20;;;;;;5054208;28;20033;-79
2022/04/18 10:11:07;;;;;;;8.60;4.05;;;13.00;37.00;;;;;;5055431;28;20021;-77
2022/04/18 10:13:35;;;;;;;7.53;3.38;;;13.00;37.70;;;;;;5055599;28;20067;-77
2022/04/18 10:16:01;;;;;;;7.10;2.70;;;13.30;38.20;;;;;;5053963;28;20029;-78
2022/04/18 10:18:28;;;;;;;3.40;2.20;;;13.30;35.30;;;;;;5054108;28;20108;-79
2022/04/18 10:21:07;;;;;;;4.00;2.22;;;14.80;35.50;;;;;;5055069;28;20443;-78
2022/04/18 10:23:55;;;;;;;4.20;2.75;;;15.90;32.20;;;;;;5054113;28;20036;-80
2022/04/18 10:26:47;;;;;;;8.68;4.82;;;16.60;34.50;;;;;;5054767;28;20491;-80
2022/04/18 10:29:20;;;;;;;9.07;4.20;;;16.70;32.30;;;;;;5053511;28;20103;-79
2022/04/18 10:31:47;;;;;;;5.03;2.97;;;16.80;32.70;;;;;;5053954;28;20480;-82
2022/04/18 10:34:13;;;;;;;7.60;3.35;;;16.30;31.30;;;;;;5053708;28;20384;-81
2022/04/18 10:36:52;;;;;;;4.40;1.80;;;17.10;32.20;;;;;;5054920;28;20021;-83
2022/04/18 10:39:19;;;;;;;7.93;2.97;;;17.00;30.70;;;;;;5054635;28;20468;-79
2022/04/18 10:41:47;;;;;;;29.33;11.73;;;16.90;29.50;;;;;;5053730;28;20180;-80
2022/04/18 10:44:18;;;;;;;17.38;10.27;;;16.90;31.90;;;;;;5054306;28;20376;-80
2022/04/18 10:47:03;;;;;;;5.10;3.40;;;16.00;30.70;;;;;;5053591;28;20078;-80
2022/04/18 10:49:35;;;;;;;6.75;2.50;;;15.60;32.50;;;;;;5054637;28;20069;-83
2022/04/18 10:52:09;;;;;;;18.67;8.50;;;15.00;31.70;;;;;;5054359;28;20039;-83
2022/04/18 10:54:35;;;;;;;9.38;3.10;;;14.40;33.60;;;;;;5054888;28;20052;-78
2022/04/18 10:57:11;;;;;;;8.40;2.17;;;14.20;33.50;;;;;;5054470;28;20032;-83
2022/04/18 10:59:38;;;;;;;5.47;2.47;;;13.90;33.50;;;;;;5054652;28;20051;-80
2022/04/18 11:02:07;;;;;;;4.78;2.15;;;13.80;33.30;;;;;;5054461;28;20033;-80
2022/04/18 11:04:48;;;;;;;7.43;3.78;;;13.80;34.80;;;;;;5053314;28;20048;-82
2022/04/18 11:07:14;;;;;;;7.38;3.80;;;13.90;33.90;;;;;;5054330;28;20021;-82
2022/04/18 11:09:49;;;;;;;15.82;6.93;;;13.70;33.00;;;;;;5053237;28;20036;-80
2022/04/18 11:12:17;;;;;;;21.67;8.10;;;13.70;34.60;;;;;;5053206;28;20082;-82
2022/04/18 11:14:47;;;;;;;14.35;7.25;;;13.80;34.90;;;;;;5052933;28;20455;-80
2022/04/18 11:17:24;;;;;;;37.22;13.25;;;14.10;34.00;;;;;;5054353;28;20029;-81
2022/04/18 11:19:50;;;;;;;10.15;4.60;;;14.10;33.00;;;;;;5052832;28;20467;-79
2022/04/18 11:22:21;;;;;;;8.63;4.20;;;14.20;34.00;;;;;;5054048;28;20033;-80
2022/04/18 11:24:51;;;;;;;5.15;3.40;;;14.10;33.60;;;;;;5054380;28;20044;-80
2022/04/18 11:27:23;;;;;;;9.13;4.43;;;14.30;33.00;;;;;;5053925;28;20028;-82
2022/04/18 11:29:54;;;;;;;8.63;4.15;;;14.20;33.50;;;;;;5052499;28;20029;-81
2022/04/18 11:32:22;;;;;;;7.57;3.40;;;14.10;31.90;;;;;;5052773;28;20376;-79
2022/04/18 11:34:50;;;;;;;12.18;5.82;;;14.00;32.20;;;;;;5052684;28;20061;-82
2022/04/18 11:37:24;;;;;;;3.95;2.25;;;15.10;37.00;;;;;;5052566;28;20036;-79
2022/04/18 11:39:52;;;;;;;6.22;3.60;;;16.50;34.00;;;;;;5053776;28;20021;-80
2022/04/18 11:42:20;;;;;;;3.42;2.13;;;17.60;30.70;;;;;;5053584;28;20100;-79
2022/04/18 11:44:48;;;;;;;4.97;2.92;;;17.50;29.50;;;;;;5053960;28;20045;-82
2022/04/18 11:47:16;;;;;;;9.48;3.55;;;16.70;30.70;;;;;;5053372;28;20029;-84
2022/04/18 11:49:45;;;;;;;7.65;3.15;;;15.80;28.90;;;;;;5052485;28;20035;-82
2022/04/18 11:52:23;;;;;;;8.40;1.90;;;15.20;29.80;;;;;;5052466;28;20031;-80
2022/04/18 11:55:01;;;;;;;4.38;2.92;;;15.50;30.50;;;;;;5052279;28;20037;-82
2022/04/18 11:57:28;;;;;;;11.68;3.17;;;15.80;30.10;;;;;;5053804;28;20049;-81
2022/04/18 11:59:55;;;;;;;9.38;4.35;;;15.40;31.00;;;;;;5053777;28;20060;-80
2022/04/18 12:08:02;;;;;;;4.47;2.10;;;14.50;32.10;;;;;;5053481;28;20384;-81
2022/04/18 12:10:31;;;;;;;4.40;2.17;;;14.60;31.50;;;;;;5052249;28;20527;-80
2022/04/18 12:12:58;;;;;;;6.63;2.88;;;14.50;31.70;;;;;;5052298;28;20025;-81
2022/04/18 12:15:26;;;;;;;7.82;3.22;;;15.00;32.90;;;;;;5052085;28;20040;-82
2022/04/18 12:17:54;;;;;;;6.72;2.88;;;14.90;32.80;;;;;;5053178;28;20027;-82
2022/04/18 12:20:28;;;;;;;7.65;4.38;;;14.80;31.70;;;;;;5053078;28;20036;-82
2022/04/18 12:22:58;;;;;;;10.82;5.57;;;14.80;33.10;;;;;;5053359;28;20064;-81
2022/04/18 12:25:27;;;;;;;6.82;3.38;;;14.80;33.50;;;;;;5053463;28;20033;-81
2022/04/18 12:27:53;;;;;;;6.47;3.42;;;14.80;31.60;;;;;;5052094;28;20021;-81
2022/04/18 12:30:19;;;;;;;7.90;2.88;;;14.90;32.10;;;;;;5051903;28;20537;-81
2022/04/18 12:32:49;;;;;;;4.50;1.83;;;14.90;33.70;;;;;;5053853;28;20111;-80
2022/04/18 12:35:35;;;;;;;3.80;1.70;;;15.20;32.00;;;;;;5055870;28;20025;-80
2022/04/18 12:38:02;;;;;;;3.97;1.90;;;15.30;30.60;;;;;;5055863;28;20051;-83
2022/04/18 12:40:37;;;;;;;5.05;2.30;;;15.60;29.50;;;;;;5055702;28;20029;-81
2022/04/18 12:43:11;;;;;;;18.13;7.35;;;15.50;29.10;;;;;;5056696;28;20036;-81
2022/04/18 12:46:01;;;;;;;6.28;4.00;;;15.40;32.30;;;;;;5057001;28;20037;-78
2022/04/18 12:48:32;;;;;;;6.72;1.88;;;15.10;30.00;;;;;;5054432;28;20431;-81
2022/04/18 12:51:03;;;;;;;2.20;1.30;;;15.10;29.80;;;;;;5055538;28;20060;-82
2022/04/18 12:53:50;;;;;;;7.32;3.30;;;14.90;31.20;;;;;;5055794;28;20391;-82
2022/04/18 12:56:24;;;;;;;10.77;5.20;;;14.20;31.20;;;;;;5057105;28;20040;-81
2022/04/18 12:58:53;;;;;;;41.03;13.38;;;14.00;34.10;;;;;;5056792;28;20044;-80
2022/04/18 13:01:26;;;;;;;18.73;4.05;;;13.40;34.20;;;;;;5055567;28;20518;-80
2022/04/18 13:03:53;;;;;;;8.80;3.15;;;12.90;37.20;;;;;;5056326;28;20399;-80
2022/04/18 13:06:23;;;;;;;4.43;1.90;;;12.90;38.30;;;;;;5055325;28;20036;-81
2022/04/18 13:08:49;;;;;;;6.32;1.65;;;13.00;37.90;;;;;;5056778;28;20064;-77
2022/04/18 13:11:16;;;;;;;4.10;1.83;;;13.20;37.70;;;;;;5056791;28;20057;-80